Time;durP1;ratioP1;P1;durP2;ratioP2;P2;SDS_P1;SDS_P2;PMS_P1;PMS_P2;Temp;Humidity;BMP_temperature;BMP_pressure;BME280_temperature;BME280_humidity;BME280_pressure;Samples;Min_cycle;Max_cycle;Signal;HPM_P1;HPM_P2
2020/12/18 00:02:00;;;;;;;85.28;32.08;;;6.00;69.40;;;;;;5054826;28;20036;-70
2020/12/18 00:04:26;;;;;;;91.05;33.88;;;6.10;69.50;;;;;;5054499;28;20064;-70
2020/12/18 00:06:52;;;;;;;79.05;31.80;;;6.10;69.40;;;;;;5054832;28;20017;-70
2020/12/18 00:09:17;;;;;;;84.80;33.65;;;6.10;69.40;;;;;;5054786;28;20400;-70
2020/12/18 00:11:43;;;;;;;93.90;34.25;;;6.20;69.40;;;;;;5054999;28;20025;-70
2020/12/18 00:14:09;;;;;;;91.68;32.78;;;6.20;69.40;;;;;;5054884;28;20025;-70
2020/12/18 00:16:34;;;;;;;79.88;32.22;;;6.20;69.50;;;;;;5054823;28;20108;-70
2020/12/18 00:19:00;;;;;;;80.10;31.45;;;6.20;69.40;;;;;;5054165;28;20027;-71
2020/12/18 00:21:26;;;;;;;93.28;33.42;;;6.30;69.40;;;;;;5054486;28;20091;-69
2020/12/18 00:23:52;;;;;;;76.43;29.10;;;6.30;69.30;;;;;;5054698;28;20021;-69
2020/12/18 00:26:18;;;;;;;69.07;27.13;;;6.30;69.30;;;;;;5053140;28;20050;-70
2020/12/18 00:28:45;;;;;;;68.47;28.55;;;6.30;69.30;;;;;;5053090;28;20032;-69
2020/12/18 00:31:11;;;;;;;66.28;28.23;;;6.30;69.30;;;;;;5054564;28;20024;-71
2020/12/18 00:33:37;;;;;;;74.13;29.65;;;6.30;69.10;;;;;;5054211;28;20069;-70
2020/12/18 00:36:03;;;;;;;74.43;30.35;;;6.40;69.10;;;;;;5053771;28;20028;-70
2020/12/18 00:38:29;;;;;;;71.35;28.83;;;6.30;69.00;;;;;;5054126;28;20020;-69
2020/12/18 00:40:55;;;;;;;73.70;28.65;;;6.40;69.10;;;;;;5054609;28;20031;-71
2020/12/18 00:43:21;;;;;;;73.35;28.83;;;6.40;69.00;;;;;;5054044;28;20090;-69
2020/12/18 00:45:46;;;;;;;80.10;30.55;;;6.40;69.00;;;;;;5052716;28;20068;-69
2020/12/18 00:48:12;;;;;;;80.30;28.67;;;6.40;69.00;;;;;;5053221;28;20035;-70
2020/12/18 00:50:38;;;;;;;83.93;29.52;;;6.40;68.90;;;;;;5053952;28;20139;-71
2020/12/18 00:53:07;;;;;;;75.80;29.25;;;6.40;69.00;;;;;;5053162;28;20074;-70
2020/12/18 00:55:33;;;;;;;72.82;28.98;;;6.40;69.10;;;;;;5054335;28;20082;-70
2020/12/18 00:57:59;;;;;;;74.22;28.50;;;6.50;69.00;;;;;;5053599;28;20024;-70
2020/12/18 01:00:24;;;;;;;74.38;28.20;;;6.50;69.00;;;;;;5054215;28;20096;-71
2020/12/18 01:02:50;;;;;;;66.75;26.15;;;6.50;68.90;;;;;;5053326;28;20429;-71
2020/12/18 01:05:16;;;;;;;67.22;25.27;;;6.50;68.90;;;;;;5053932;28;20029;-70
2020/12/18 01:07:42;;;;;;;73.65;26.02;;;6.50;68.90;;;;;;5052800;28;20040;-71
2020/12/18 01:10:07;;;;;;;78.45;29.42;;;6.50;68.90;;;;;;5053378;28;20376;-70
2020/12/18 01:12:33;;;;;;;68.47;26.10;;;6.50;68.80;;;;;;5053580;28;20509;-70
2020/12/18 01:14:59;;;;;;;69.03;26.67;;;6.50;68.90;;;;;;5053347;28;20330;-70
2020/12/18 01:17:25;;;;;;;69.60;25.90;;;6.50;68.90;;;;;;5053818;28;20033;-69
2020/12/18 01:19:50;;;;;;;65.20;25.45;;;6.50;68.80;;;;;;5053521;28;20064;-71
2020/12/18 01:22:16;;;;;;;62.35;24.73;;;6.60;68.80;;;;;;5054018;28;20018;-70
2020/12/18 01:24:42;;;;;;;66.78;24.98;;;6.50;68.80;;;;;;5053936;28;20395;-73
2020/12/18 01:27:07;;;;;;;62.80;25.45;;;6.50;68.70;;;;;;5053693;28;20103;-70
2020/12/18 01:29:33;;;;;;;64.10;25.30;;;6.50;68.70;;;;;;5053323;28;20083;-69
2020/12/18 01:31:59;;;;;;;66.88;25.63;;;6.60;68.60;;;;;;5053413;28;20032;-70
2020/12/18 01:34:24;;;;;;;63.78;23.67;;;6.50;68.50;;;;;;5053350;28;20028;-70
2020/12/18 01:36:50;;;;;;;64.82;26.13;;;6.50;68.60;;;;;;5053798;28;20063;-71
2020/12/18 01:39:16;;;;;;;66.25;25.17;;;6.60;68.60;;;;;;5053037;28;20050;-70
2020/12/18 01:41:41;;;;;;;63.53;24.85;;;6.60;68.60;;;;;;5053862;28;20029;-70
2020/12/18 01:44:07;;;;;;;64.15;26.00;;;6.60;68.60;;;;;;5053140;28;20043;-69
2020/12/18 01:46:35;;;;;;;68.93;28.63;;;6.60;68.60;;;;;;5052036;28;20063;-70
2020/12/18 01:49:00;;;;;;;54.95;23.27;;;6.60;68.60;;;;;;5052957;28;20025;-70
2020/12/18 01:51:27;;;;;;;56.00;23.83;;;6.60;68.50;;;;;;5052897;28;20361;-69
2020/12/18 01:53:54;;;;;;;56.33;24.85;;;6.50;68.40;;;;;;5053088;28;20356;-71
2020/12/18 01:56:21;;;;;;;53.63;23.77;;;6.50;68.40;;;;;;5053165;28;20100;-69
2020/12/18 01:58:51;;;;;;;48.75;21.27;;;6.50;68.30;;;;;;5052996;28;20021;-69
2020/12/18 02:01:16;;;;;;;47.92;20.77;;;6.50;68.20;;;;;;5052832;28;20571;-71
2020/12/18 02:03:42;;;;;;;47.75;21.45;;;6.50;68.40;;;;;;5052729;28;20099;-70
2020/12/18 02:06:13;;;;;;;45.33;20.45;;;6.50;68.40;;;;;;5053047;28;20445;-70
2020/12/18 02:08:41;;;;;;;44.05;20.15;;;6.50;68.20;;;;;;5052791;28;20435;-70
2020/12/18 02:11:11;;;;;;;47.70;20.65;;;6.40;68.00;;;;;;5053297;28;20056;-69
2020/12/18 02:13:36;;;;;;;48.63;20.60;;;6.40;68.10;;;;;;5052983;28;20013;-70
2020/12/18 02:16:02;;;;;;;50.72;21.25;;;6.40;68.90;;;;;;5053499;28;20032;-73
2020/12/18 02:18:28;;;;;;;45.25;20.73;;;6.40;68.30;;;;;;5053143;28;20029;-72
2020/12/18 02:20:54;;;;;;;45.55;20.60;;;6.40;68.40;;;;;;5052615;28;20017;-71
2020/12/18 02:23:20;;;;;;;38.88;18.33;;;6.40;68.40;;;;;;5052589;28;20450;-71
2020/12/18 02:26:10;;;;;;;41.50;18.83;;;6.30;68.40;;;;;;5053040;28;20120;-70
2020/12/18 02:28:41;;;;;;;44.17;19.65;;;6.30;68.30;;;;;;5051058;28;20037;-71
2020/12/18 02:31:08;;;;;;;45.33;19.85;;;6.30;68.40;;;;;;5056514;28;20023;-71
2020/12/18 02:33:34;;;;;;;55.03;23.08;;;6.30;68.50;;;;;;5056460;28;20044;-69
2020/12/18 02:36:01;;;;;;;57.72;23.98;;;6.30;68.60;;;;;;5056375;28;20040;-70
2020/12/18 02:38:27;;;;;;;41.38;20.85;;;6.40;68.70;;;;;;5056361;28;20025;-72
2020/12/18 02:40:54;;;;;;;45.55;20.77;;;6.40;68.70;;;;;;5056618;28;20025;-71
2020/12/18 02:43:20;;;;;;;42.75;19.83;;;6.40;68.60;;;;;;5056559;28;20441;-68
2020/12/18 02:45:46;;;;;;;42.85;20.35;;;6.40;68.70;;;;;;5055787;28;20119;-71
2020/12/18 02:48:11;;;;;;;46.95;20.70;;;6.40;68.60;;;;;;5056163;28;20025;-71
2020/12/18 02:50:37;;;;;;;39.67;18.45;;;6.40;68.60;;;;;;5055828;28;20017;-70
2020/12/18 02:53:15;;;;;;;33.20;16.35;;;6.40;68.30;;;;;;5056604;28;20326;-70
2020/12/18 02:55:41;;;;;;;34.05;17.05;;;6.40;68.20;;;;;;5055782;28;20020;-70
2020/12/18 02:58:08;;;;;;;36.40;18.15;;;6.40;68.20;;;;;;5055940;28;20112;-71
2020/12/18 03:00:34;;;;;;;39.28;17.38;;;6.40;68.20;;;;;;5055948;28;20089;-70
2020/12/18 03:03:00;;;;;;;41.50;19.25;;;6.40;68.20;;;;;;5055831;28;20029;-70
2020/12/18 03:05:26;;;;;;;46.92;20.52;;;6.30;68.20;;;;;;5055749;28;20033;-70
2020/12/18 03:07:52;;;;;;;44.05;19.50;;;6.40;68.20;;;;;;5055276;28;20028;-70
2020/12/18 03:10:18;;;;;;;38.20;18.20;;;6.30;67.80;;;;;;5055259;28;20427;-70
2020/12/18 03:12:44;;;;;;;41.38;18.95;;;6.20;68.00;;;;;;5055620;28;20029;-70
2020/12/18 03:15:11;;;;;;;44.65;19.75;;;6.10;68.30;;;;;;5054389;28;20033;-70
2020/12/18 03:17:36;;;;;;;46.22;19.75;;;6.10;68.40;;;;;;5055630;28;20021;-70
2020/12/18 03:20:03;;;;;;;53.92;24.40;;;6.10;68.30;;;;;;5055315;28;20025;-70
2020/12/18 03:22:31;;;;;;;46.97;23.10;;;6.10;68.40;;;;;;5055637;28;20398;-70
2020/12/18 03:24:59;;;;;;;41.58;20.50;;;6.00;68.30;;;;;;5055684;28;20045;-70
2020/12/18 03:27:25;;;;;;;44.88;21.40;;;5.90;68.30;;;;;;5055771;28;20036;-70
2020/12/18 03:29:51;;;;;;;41.58;19.58;;;5.90;68.40;;;;;;5055496;28;20024;-70
2020/12/18 03:32:17;;;;;;;48.90;20.30;;;5.80;69.00;;;;;;5055653;28;20024;-70
2020/12/18 03:34:42;;;;;;;48.17;20.52;;;5.70;68.60;;;;;;5055376;28;20476;-70
2020/12/18 03:37:08;;;;;;;38.28;17.88;;;5.70;68.80;;;;;;5054505;28;20350;-70
2020/12/18 03:39:34;;;;;;;52.83;24.50;;;5.70;69.00;;;;;;5054510;28;20335;-70
2020/12/18 03:42:00;;;;;;;55.05;24.70;;;5.70;69.10;;;;;;5055209;28;20028;-70
2020/12/18 03:44:26;;;;;;;46.72;22.95;;;5.70;69.20;;;;;;5055371;28;20075;-70
2020/12/18 03:46:52;;;;;;;53.45;27.20;;;5.70;69.00;;;;;;5055395;28;20436;-71
2020/12/18 03:49:17;;;;;;;56.22;28.48;;;5.60;69.00;;;;;;5055446;28;20055;-71
2020/12/18 03:51:43;;;;;;;60.00;28.25;;;5.50;69.40;;;;;;5055322;28;20024;-69
2020/12/18 03:54:09;;;;;;;65.28;30.15;;;5.50;69.20;;;;;;5054995;28;20096;-69
2020/12/18 03:56:35;;;;;;;61.78;28.45;;;5.50;69.20;;;;;;5053688;28;20028;-69
2020/12/18 03:59:01;;;;;;;64.00;28.83;;;5.40;69.40;;;;;;5055170;28;20048;-70
2020/12/18 04:01:26;;;;;;;54.28;28.80;;;5.30;69.60;;;;;;5055095;28;20049;-70
2020/12/18 04:03:52;;;;;;;54.40;26.52;;;5.30;69.90;;;;;;5054777;28;20025;-69
2020/12/18 04:06:18;;;;;;;56.17;26.77;;;5.30;70.10;;;;;;5054938;28;20036;-70
2020/12/18 04:08:44;;;;;;;56.53;26.67;;;5.30;70.20;;;;;;5054818;28;20032;-69
2020/12/18 04:11:10;;;;;;;50.03;26.05;;;5.30;69.90;;;;;;5054688;28;20025;-69
2020/12/18 04:13:36;;;;;;;60.45;28.85;;;5.20;70.10;;;;;;5054850;28;20043;-69
2020/12/18 04:16:02;;;;;;;59.03;28.17;;;5.20;70.40;;;;;;5053316;28;20380;-69
2020/12/18 04:18:28;;;;;;;68.72;31.27;;;5.20;70.70;;;;;;5054773;28;20021;-70
2020/12/18 04:20:54;;;;;;;62.33;31.33;;;5.20;70.70;;;;;;5054719;28;20036;-70
2020/12/18 04:23:20;;;;;;;56.33;28.40;;;5.20;70.60;;;;;;5054351;28;20330;-70
2020/12/18 04:25:45;;;;;;;56.08;27.85;;;5.20;70.60;;;;;;5054267;28;20029;-69
2020/12/18 04:28:11;;;;;;;57.08;28.20;;;5.20;70.30;;;;;;5054633;28;20052;-70
2020/12/18 04:30:37;;;;;;;36.00;19.02;;;5.10;70.20;;;;;;5054509;28;20027;-69
2020/12/18 04:33:03;;;;;;;49.30;25.48;;;5.10;70.10;;;;;;5054503;28;20351;-69
2020/12/18 04:35:28;;;;;;;44.40;23.15;;;5.00;70.30;;;;;;5054443;28;20029;-71
2020/12/18 04:37:54;;;;;;;43.70;22.63;;;5.00;70.50;;;;;;5054402;28;20021;-70
2020/12/18 04:40:20;;;;;;;43.92;23.38;;;4.90;70.60;;;;;;5053794;28;20415;-70
2020/12/18 04:42:46;;;;;;;46.70;23.58;;;4.90;70.40;;;;;;5054276;28;20462;-71
2020/12/18 04:45:12;;;;;;;44.38;22.27;;;4.90;70.80;;;;;;5053926;28;20029;-69
2020/12/18 04:47:41;;;;;;;46.00;23.98;;;4.90;70.90;;;;;;5054120;28;20461;-70
2020/12/18 04:50:08;;;;;;;39.75;21.27;;;4.90;71.10;;;;;;5052832;28;20027;-70
2020/12/18 04:52:36;;;;;;;40.95;21.05;;;4.80;71.20;;;;;;5052561;28;20033;-70
2020/12/18 04:55:02;;;;;;;43.28;21.27;;;4.90;71.40;;;;;;5053549;28;20036;-71
2020/12/18 04:57:28;;;;;;;38.58;20.42;;;4.90;71.40;;;;;;5053864;28;20100;-70
2020/12/18 04:59:54;;;;;;;43.88;21.88;;;4.90;71.50;;;;;;5054364;28;20021;-70
2020/12/18 05:02:24;;;;;;;41.42;21.65;;;4.90;71.70;;;;;;5052490;28;20401;-70
2020/12/18 05:04:52;;;;;;;45.22;21.48;;;4.90;71.70;;;;;;5053848;28;20029;-70
2020/12/18 05:07:18;;;;;;;43.80;22.10;;;4.90;71.40;;;;;;5052236;28;20021;-71
2020/12/18 05:09:53;;;;;;;40.15;20.52;;;4.90;71.60;;;;;;5053538;28;20051;-70
2020/12/18 05:12:18;;;;;;;40.75;18.92;;;4.90;71.40;;;;;;5053553;28;20334;-70
2020/12/18 05:14:44;;;;;;;44.88;20.20;;;4.90;71.00;;;;;;5053355;28;20025;-70
2020/12/18 05:17:11;;;;;;;42.50;19.63;;;4.80;71.80;;;;;;5053361;28;20036;-71
2020/12/18 05:19:41;;;;;;;38.40;18.20;;;4.80;71.80;;;;;;5053618;28;20028;-70
2020/12/18 05:22:09;;;;;;;53.15;22.55;;;4.70;71.10;;;;;;5053332;28;20096;-70
2020/12/18 05:24:36;;;;;;;49.92;21.33;;;4.70;70.90;;;;;;5053173;28;20033;-71
2020/12/18 05:27:03;;;;;;;46.85;21.27;;;4.60;70.90;;;;;;5053048;28;20104;-71
2020/12/18 05:29:30;;;;;;;50.50;23.02;;;4.50;71.40;;;;;;5051857;28;20021;-70
2020/12/18 05:31:58;;;;;;;41.17;21.08;;;4.50;71.90;;;;;;5052021;28;20342;-70
2020/12/18 05:34:24;;;;;;;40.22;20.27;;;4.60;72.30;;;;;;5053339;28;20498;-71
2020/12/18 05:36:50;;;;;;;38.10;20.65;;;4.60;72.10;;;;;;5053224;28;20048;-70
2020/12/18 05:39:17;;;;;;;32.78;17.10;;;4.60;72.10;;;;;;5052886;28;20122;-70
2020/12/18 05:41:54;;;;;;;39.83;19.48;;;4.60;72.10;;;;;;5052411;28;20039;-70
2020/12/18 05:44:23;;;;;;;39.42;19.20;;;4.60;71.80;;;;;;5053635;28;20025;-70
2020/12/18 05:46:50;;;;;;;30.48;16.42;;;4.60;71.90;;;;;;5053213;28;20029;-69
2020/12/18 05:49:26;;;;;;;36.00;17.60;;;4.50;71.80;;;;;;5053068;28;20027;-70
2020/12/18 05:51:52;;;;;;;33.65;17.73;;;4.50;71.90;;;;;;5053027;28;20025;-71
2020/12/18 05:54:19;;;;;;;35.58;19.33;;;4.50;71.90;;;;;;5052785;28;20231;-71
2020/12/18 05:56:51;;;;;;;35.17;18.60;;;4.50;72.00;;;;;;5052628;28;20025;-71
2020/12/18 05:59:19;;;;;;;28.90;16.60;;;4.40;72.00;;;;;;5053184;28;20071;-70
2020/12/18 06:01:51;;;;;;;34.88;18.25;;;4.40;72.00;;;;;;5056211;28;20035;-71
2020/12/18 06:04:20;;;;;;;31.45;15.90;;;4.40;72.00;;;;;;5056513;28;20534;-72
2020/12/18 06:06:52;;;;;;;35.28;18.35;;;4.40;72.20;;;;;;5057256;28;20021;-70
2020/12/18 06:09:19;;;;;;;43.92;19.35;;;4.40;72.40;;;;;;5056614;28;20044;-70
2020/12/18 06:11:46;;;;;;;36.28;18.88;;;4.50;72.50;;;;;;5057177;28;20108;-73
2020/12/18 06:14:14;;;;;;;34.17;17.77;;;4.50;72.60;;;;;;5056837;28;20025;-71
2020/12/18 06:16:45;;;;;;;30.00;16.77;;;4.60;72.60;;;;;;5056811;28;20036;-72
2020/12/18 06:19:14;;;;;;;33.28;18.98;;;4.60;72.40;;;;;;5056756;28;20069;-72
2020/12/18 06:21:41;;;;;;;35.10;19.48;;;4.60;72.30;;;;;;5056787;28;20017;-72
2020/12/18 06:24:09;;;;;;;27.13;15.35;;;4.70;72.50;;;;;;5056569;28;20021;-71
2020/12/18 06:26:35;;;;;;;36.22;18.80;;;4.70;72.30;;;;;;5055281;28;20427;-71
2020/12/18 06:29:03;;;;;;;41.90;19.65;;;4.70;72.20;;;;;;5056635;28;20017;-69
2020/12/18 06:31:31;;;;;;;30.33;16.30;;;4.80;72.10;;;;;;5055920;28;20070;-71
2020/12/18 06:34:02;;;;;;;28.73;15.13;;;4.80;72.00;;;;;;5056160;28;20013;-71
2020/12/18 06:36:47;;;;;;;29.00;15.32;;;4.80;71.70;;;;;;5056301;28;20036;-69
2020/12/18 06:39:29;;;;;;;32.90;16.77;;;4.80;71.20;;;;;;5054594;28;20020;-72
2020/12/18 06:42:22;;;;;;;30.80;16.30;;;4.70;71.20;;;;;;5056435;28;20021;-71
2020/12/18 06:44:49;;;;;;;32.67;16.45;;;4.70;71.40;;;;;;5055989;28;20033;-71
2020/12/18 06:47:24;;;;;;;36.42;17.30;;;4.70;71.60;;;;;;5055919;28;20028;-71
2020/12/18 06:49:57;;;;;;;34.42;16.90;;;4.70;71.60;;;;;;5055761;28;20025;-70
2020/12/18 06:52:48;;;;;;;34.10;18.75;;;4.70;71.40;;;;;;5054740;28;20024;-72
2020/12/18 06:55:26;;;;;;;35.22;16.98;;;4.60;71.20;;;;;;5055733;28;20041;-71
2020/12/18 06:58:15;;;;;;;30.92;16.30;;;4.60;71.30;;;;;;5055884;28;20420;-71
2020/12/18 07:00:49;;;;;;;30.83;17.08;;;4.60;71.60;;;;;;5050344;28;20069;-70
2020/12/18 07:03:37;;;;;;;43.23;21.37;;;4.60;71.40;;;;;;5055716;28;20063;-71
2020/12/18 07:06:05;;;;;;;37.22;18.17;;;4.50;71.30;;;;;;5054579;28;20025;-71
2020/12/18 07:08:32;;;;;;;37.28;18.23;;;4.50;71.10;;;;;;5056028;28;20052;-71
2020/12/18 07:11:12;;;;;;;33.08;17.60;;;4.40;71.10;;;;;;5055581;28;20099;-71
2020/12/18 07:13:46;;;;;;;36.70;19.13;;;4.40;71.30;;;;;;5055459;28;20036;-71
2020/12/18 07:16:12;;;;;;;39.60;20.15;;;4.40;71.40;;;;;;5055540;28;20036;-71
2020/12/18 07:18:39;;;;;;;40.33;20.05;;;4.40;71.40;;;;;;5055840;28;20025;-70
2020/12/18 07:21:06;;;;;;;36.92;18.35;;;4.30;71.70;;;;;;5055221;28;20045;-72
2020/12/18 07:23:34;;;;;;;34.30;18.00;;;4.40;72.10;;;;;;5054153;28;20063;-70
2020/12/18 07:26:02;;;;;;;32.45;16.83;;;4.40;72.40;;;;;;5055700;28;20021;-71
2020/12/18 07:28:28;;;;;;;28.55;15.48;;;4.40;72.00;;;;;;5055463;28;20055;-70
2020/12/18 07:30:56;;;;;;;34.95;18.00;;;4.50;71.90;;;;;;5055364;28;20021;-70
2020/12/18 07:33:22;;;;;;;30.90;16.98;;;4.50;71.70;;;;;;5055242;28;20379;-71
2020/12/18 07:35:54;;;;;;;38.08;18.08;;;4.50;71.60;;;;;;5055249;28;20052;-71
2020/12/18 07:38:33;;;;;;;34.55;17.88;;;4.50;71.80;;;;;;5055428;28;20025;-71
2020/12/18 07:41:00;;;;;;;29.20;15.25;;;4.50;71.90;;;;;;5055064;28;20364;-71
2020/12/18 07:43:28;;;;;;;28.85;16.52;;;4.60;71.80;;;;;;5055057;28;20056;-71
2020/12/18 07:45:57;;;;;;;35.25;16.92;;;4.60;71.50;;;;;;5054703;28;20033;-70
2020/12/18 07:48:28;;;;;;;39.88;20.38;;;4.60;71.60;;;;;;5055088;28;20105;-70
2020/12/18 07:50:55;;;;;;;40.08;20.02;;;4.60;71.80;;;;;;5053713;28;20020;-71
2020/12/18 07:53:21;;;;;;;45.97;22.58;;;4.70;71.70;;;;;;5054117;28;20017;-70
2020/12/18 07:56:09;;;;;;;42.38;21.45;;;4.70;71.70;;;;;;5054899;28;20024;-70
2020/12/18 07:58:45;;;;;;;41.22;21.55;;;4.80;71.70;;;;;;5054630;28;20032;-71
2020/12/18 08:01:13;;;;;;;45.63;21.90;;;4.80;71.80;;;;;;5054912;28;20427;-72
2020/12/18 08:04:00;;;;;;;48.60;21.83;;;4.90;71.60;;;;;;5054590;28;20021;-71
2020/12/18 08:06:33;;;;;;;50.67;24.77;;;4.90;71.00;;;;;;5047003;28;20040;-71
2020/12/18 08:08:59;;;;;;;56.72;26.27;;;4.80;70.90;;;;;;5054429;28;20048;-70
2020/12/18 08:11:30;;;;;;;54.92;24.95;;;4.90;71.10;;;;;;5053602;28;20036;-72
2020/12/18 08:13:57;;;;;;;54.25;23.50;;;4.90;70.80;;;;;;5054274;28;20013;-70
2020/12/18 08:16:25;;;;;;;57.67;24.48;;;4.80;70.90;;;;;;5054752;28;20021;-71
2020/12/18 08:18:53;;;;;;;54.65;26.60;;;4.80;70.70;;;;;;5054520;28;20068;-71
2020/12/18 08:21:49;;;;;;;57.58;25.48;;;4.80;71.00;;;;;;5054456;28;20021;-71
2020/12/18 08:24:31;;;;;;;59.47;25.20;;;4.80;70.90;;;;;;5052381;28;20032;-70
2020/12/18 08:27:05;;;;;;;56.97;24.98;;;4.90;71.10;;;;;;5054340;28;20033;-70
2020/12/18 08:29:32;;;;;;;40.30;20.50;;;5.00;71.30;;;;;;5054592;28;20017;-69
2020/12/18 08:32:01;;;;;;;41.53;20.33;;;5.10;71.20;;;;;;5054077;28;20055;-70
2020/12/18 08:34:32;;;;;;;34.90;19.13;;;5.20;71.00;;;;;;5053964;28;20318;-71
2020/12/18 08:36:59;;;;;;;47.78;22.15;;;5.30;70.80;;;;;;5052859;28;20029;-71
2020/12/18 08:39:35;;;;;;;46.60;20.42;;;5.50;70.70;;;;;;5054014;28;20021;-71
2020/12/18 08:42:02;;;;;;;40.33;18.98;;;5.60;70.00;;;;;;5053886;28;20469;-71
2020/12/18 08:44:35;;;;;;;35.58;17.70;;;5.70;69.60;;;;;;5053446;28;20017;-71
2020/12/18 08:47:01;;;;;;;49.55;19.40;;;5.80;69.30;;;;;;5053779;28;20025;-71
2020/12/18 08:49:28;;;;;;;45.10;18.67;;;5.90;69.20;;;;;;5053853;28;20338;-75
2020/12/18 08:51:55;;;;;;;39.03;17.67;;;6.00;68.70;;;;;;5054197;28;20029;-71
2020/12/18 08:54:33;;;;;;;39.13;18.13;;;6.00;68.20;;;;;;5053811;28;20116;-71
2020/12/18 08:57:19;;;;;;;29.65;15.77;;;6.00;67.60;;;;;;5053510;28;20021;-71
2020/12/18 09:00:15;;;;;;;31.65;15.63;;;6.10;67.20;;;;;;5053738;28;20025;-70
2020/12/18 09:02:56;;;;;;;31.48;15.02;;;6.00;67.00;;;;;;5030734;28;20068;-70
2020/12/18 09:05:33;;;;;;;38.58;17.02;;;6.00;66.80;;;;;;5053854;28;20037;-72
2020/12/18 09:08:00;;;;;;;33.03;16.25;;;6.10;66.90;;;;;;5052889;28;20037;-70
2020/12/18 09:10:28;;;;;;;36.55;17.15;;;6.10;66.70;;;;;;5053162;28;20110;-70
2020/12/18 09:12:54;;;;;;;33.80;14.70;;;6.10;66.60;;;;;;5053505;28;20025;-72
2020/12/18 09:15:24;;;;;;;23.50;11.45;;;6.10;66.40;;;;;;5053955;28;20108;-72
2020/12/18 09:18:03;;;;;;;24.50;11.95;;;6.10;66.00;;;;;;5053489;28;20021;-72
2020/12/18 09:20:35;;;;;;;24.33;11.50;;;6.10;65.30;;;;;;5052123;28;20475;-72
2020/12/18 09:23:02;;;;;;;24.00;12.57;;;6.00;65.00;;;;;;5053639;28;20020;-72
2020/12/18 09:25:28;;;;;;;24.75;13.63;;;5.90;64.80;;;;;;5053173;28;20021;-73
2020/12/18 09:27:55;;;;;;;30.67;16.10;;;5.80;65.20;;;;;;5053319;28;20025;-71
2020/12/18 09:30:31;;;;;;;30.98;15.85;;;5.80;65.40;;;;;;5053776;28;20051;-71
2020/12/18 09:33:08;;;;;;;32.33;15.15;;;5.70;65.40;;;;;;5053547;28;20017;-70
2020/12/18 09:35:33;;;;;;;35.42;18.23;;;5.70;65.50;;;;;;5053126;28;20063;-72
2020/12/18 09:37:59;;;;;;;36.20;18.13;;;5.70;65.80;;;;;;5053532;28;20061;-73
2020/12/18 09:40:25;;;;;;;38.55;19.20;;;5.70;66.10;;;;;;5052807;28;20126;-70
2020/12/18 09:42:51;;;;;;;42.03;22.90;;;5.80;66.20;;;;;;5052761;28;20021;-72
2020/12/18 09:45:16;;;;;;;44.50;25.77;;;5.80;66.00;;;;;;5052669;28;20021;-71
2020/12/18 09:47:42;;;;;;;44.17;22.58;;;5.80;65.90;;;;;;5053590;28;20029;-73
2020/12/18 09:50:08;;;;;;;45.35;24.90;;;5.80;65.80;;;;;;5053470;28;20361;-78
2020/12/18 09:52:33;;;;;;;36.42;18.92;;;5.70;65.50;;;;;;5051724;28;20053;-72
2020/12/18 09:54:59;;;;;;;37.28;20.55;;;5.70;65.40;;;;;;5051547;28;20026;-72
2020/12/18 09:57:26;;;;;;;38.30;20.15;;;5.50;65.60;;;;;;5053698;28;20029;-71
2020/12/18 09:59:51;;;;;;;37.30;20.25;;;5.50;65.90;;;;;;5052599;28;20388;-71
2020/12/18 10:02:17;;;;;;;38.75;20.33;;;5.40;66.10;;;;;;5052999;28;20025;-72
2020/12/18 10:04:43;;;;;;;36.88;19.65;;;5.30;66.20;;;;;;5053069;28;20025;-71
2020/12/18 10:07:08;;;;;;;36.67;19.05;;;5.30;66.30;;;;;;5053334;28;20064;-71
2020/12/18 10:09:34;;;;;;;32.30;17.33;;;5.20;66.70;;;;;;5052975;28;20049;-72
2020/12/18 10:12:00;;;;;;;31.67;17.73;;;5.20;66.80;;;;;;5053284;28;20021;-71
2020/12/18 10:14:26;;;;;;;31.20;17.27;;;5.20;67.10;;;;;;5052942;28;20437;-70
2020/12/18 10:16:51;;;;;;;31.98;17.67;;;5.30;67.20;;;;;;5051958;28;20021;-72
2020/12/18 10:19:17;;;;;;;29.45;16.38;;;5.30;67.10;;;;;;5051443;28;20112;-71
2020/12/18 10:21:42;;;;;;;39.13;17.23;;;5.40;66.90;;;;;;5052672;28;20017;-71
2020/12/18 10:24:08;;;;;;;28.30;16.48;;;5.40;66.90;;;;;;5053156;28;20393;-71
2020/12/18 10:26:34;;;;;;;33.85;17.55;;;5.40;66.90;;;;;;5052725;28;20028;-70
2020/12/18 10:28:59;;;;;;;30.65;16.10;;;5.30;67.10;;;;;;5051445;28;20028;-71
2020/12/18 10:31:25;;;;;;;29.23;15.70;;;5.40;66.90;;;;;;5052751;28;20049;-70
2020/12/18 10:33:51;;;;;;;29.10;16.10;;;5.40;66.80;;;;;;5052491;28;20017;-70
2020/12/18 10:36:17;;;;;;;35.63;16.70;;;5.40;66.90;;;;;;5052650;28;20099;-69
2020/12/18 10:38:42;;;;;;;34.50;18.65;;;5.30;66.70;;;;;;5052390;28;20013;-71
2020/12/18 10:41:09;;;;;;;37.58;19.88;;;5.30;66.70;;;;;;5052890;28;20025;-72
2020/12/18 10:43:35;;;;;;;46.67;21.60;;;5.30;66.70;;;;;;5053339;28;20021;-72
2020/12/18 10:46:00;;;;;;;44.00;23.35;;;5.20;66.80;;;;;;5052789;28;20108;-71
2020/12/18 10:48:26;;;;;;;58.22;25.00;;;5.20;67.00;;;;;;5054524;28;20075;-71
2020/12/18 10:50:52;;;;;;;41.15;20.85;;;5.20;67.10;;;;;;5057352;28;20036;-72
2020/12/18 10:53:19;;;;;;;39.03;20.40;;;5.20;67.20;;;;;;5055356;28;20120;-71
2020/12/18 10:55:45;;;;;;;34.08;18.13;;;5.20;67.20;;;;;;5055986;28;20465;-71
2020/12/18 10:58:10;;;;;;;33.25;18.02;;;5.20;67.30;;;;;;5056219;28;20035;-71
2020/12/18 11:00:37;;;;;;;40.95;19.90;;;5.10;67.40;;;;;;5056391;28;20144;-69
2020/12/18 11:03:03;;;;;;;31.83;17.45;;;5.10;67.40;;;;;;5054976;28;20020;-70
2020/12/18 11:05:29;;;;;;;30.77;16.38;;;5.10;67.60;;;;;;5055854;28;20028;-71
2020/12/18 11:07:55;;;;;;;32.63;17.52;;;5.00;67.60;;;;;;5056165;28;20440;-72
2020/12/18 11:10:24;;;;;;;36.53;18.60;;;5.00;67.70;;;;;;5056802;28;20048;-71
2020/12/18 11:12:50;;;;;;;33.00;16.92;;;5.00;68.00;;;;;;5055614;28;20483;-72
2020/12/18 11:15:17;;;;;;;29.60;16.23;;;5.00;67.80;;;;;;5054602;28;20022;-70
2020/12/18 11:17:43;;;;;;;36.33;17.98;;;5.00;67.90;;;;;;5056154;28;20031;-69
2020/12/18 11:20:10;;;;;;;31.25;15.88;;;5.00;68.10;;;;;;5056030;28;20112;-71
2020/12/18 11:22:35;;;;;;;29.58;14.90;;;5.00;68.30;;;;;;5055976;28;20024;-71
2020/12/18 11:25:01;;;;;;;34.90;17.50;;;5.10;68.10;;;;;;5056017;28;20368;-71
2020/12/18 11:27:27;;;;;;;28.95;14.50;;;5.10;68.30;;;;;;5055642;28;20102;-70
2020/12/18 11:29:53;;;;;;;35.92;17.42;;;5.10;68.40;;;;;;5055153;28;20021;-71
2020/12/18 11:32:19;;;;;;;27.92;14.73;;;5.10;68.00;;;;;;5055807;28;20029;-71
2020/12/18 11:34:48;;;;;;;28.25;15.73;;;5.10;67.80;;;;;;5055058;28;20424;-71
2020/12/18 11:37:17;;;;;;;27.48;15.82;;;5.00;67.70;;;;;;5055895;28;20055;-71
2020/12/18 11:39:43;;;;;;;28.33;14.93;;;5.00;68.10;;;;;;5054350;28;20051;-70
2020/12/18 11:42:09;;;;;;;23.60;15.07;;;5.00;68.10;;;;;;5055315;28;20445;-70
2020/12/18 11:44:35;;;;;;;28.65;15.45;;;5.00;67.90;;;;;;5055194;28;20029;-72
2020/12/18 11:47:00;;;;;;;29.50;15.98;;;5.00;67.80;;;;;;5052975;28;20024;-71
2020/12/18 11:49:26;;;;;;;33.80;15.88;;;4.90;68.10;;;;;;5053055;28;20025;-72
2020/12/18 11:51:52;;;;;;;30.05;15.30;;;5.00;68.40;;;;;;5055156;28;20021;-72
2020/12/18 11:54:17;;;;;;;28.20;14.48;;;5.00;68.20;;;;;;5053781;28;20021;-72
2020/12/18 11:56:48;;;;;;;32.33;16.10;;;5.00;68.00;;;;;;5054856;28;20029;-71
2020/12/18 11:59:14;;;;;;;29.52;16.20;;;5.00;68.00;;;;;;5054750;28;20025;-73
2020/12/18 12:01:39;;;;;;;29.00;15.57;;;5.00;68.00;;;;;;5054819;28;20028;-71
2020/12/18 12:04:05;;;;;;;28.38;14.60;;;5.00;68.10;;;;;;5053525;28;20025;-71
2020/12/18 12:06:30;;;;;;;29.23;16.42;;;5.00;68.30;;;;;;5053449;28;20021;-72
2020/12/18 12:09:03;;;;;;;33.03;17.10;;;5.10;68.20;;;;;;5054071;28;20064;-71
2020/12/18 12:11:39;;;;;;;33.17;17.00;;;5.10;68.10;;;;;;5055074;28;20028;-71
2020/12/18 12:14:06;;;;;;;32.00;17.23;;;5.10;67.90;;;;;;5054797;28;20122;-71
2020/12/18 12:16:33;;;;;;;30.25;16.30;;;5.10;67.90;;;;;;5053609;28;20028;-71
2020/12/18 12:18:58;;;;;;;30.10;16.70;;;5.10;67.50;;;;;;5054565;28;20048;-71
2020/12/18 12:21:33;;;;;;;31.20;16.85;;;5.00;67.30;;;;;;5054630;28;20041;-70
2020/12/18 12:24:00;;;;;;;32.50;16.95;;;5.00;67.70;;;;;;5054543;28;20445;-70
2020/12/18 12:26:26;;;;;;;33.75;17.40;;;5.00;67.80;;;;;;5054395;28;20025;-71
2020/12/18 12:28:52;;;;;;;43.28;18.67;;;5.00;67.80;;;;;;5053429;28;20025;-71
2020/12/18 12:31:18;;;;;;;30.95;16.48;;;5.00;68.00;;;;;;5053833;28;20025;-72
2020/12/18 12:33:44;;;;;;;30.30;16.63;;;5.00;67.80;;;;;;5053938;28;20104;-73
2020/12/18 12:36:09;;;;;;;34.08;18.30;;;5.10;67.70;;;;;;5054154;28;20075;-73
2020/12/18 12:38:35;;;;;;;38.75;17.95;;;5.10;67.70;;;;;;5054312;28;20021;-73
2020/12/18 12:41:01;;;;;;;37.33;18.75;;;5.10;67.90;;;;;;5052879;28;20104;-74